Time;durP1;ratioP1;P1;durP2;ratioP2;P2;SDS_P1;SDS_P2;PMS_P1;PMS_P2;Temp;Humidity;BMP_temperature;BMP_pressure;BME280_temperature;BME280_humidity;BME280_pressure;Samples;Min_cycle;Max_cycle;Signal;HPM_P1;HPM_P2
2022/06/11 00:00:06;;;;;;;3.53;1.73;;;;;;;;;;4991668;28;20228;-71
2022/06/11 00:02:31;;;;;;;4.03;1.98;;;;;;;;;;4968991;28;20241;-71
2022/06/11 00:04:57;;;;;;;2.70;1.73;;;;;;;;;;4975114;28;20649;-70
2022/06/11 00:07:23;;;;;;;2.28;2.00;;;;;;;;;;4976702;28;20233;-71
2022/06/11 00:09:49;;;;;;;3.17;2.00;;;;;;;;;;4990208;28;20232;-71
2022/06/11 00:12:14;;;;;;;3.53;2.00;;;;;;;;;;4992737;28;20229;-71
2022/06/11 00:14:41;;;;;;;3.60;2.03;;;;;;;;;;4976442;28;20289;-71
2022/06/11 00:17:07;;;;;;;2.38;1.85;;;;;;;;;;4957563;28;20665;-71
2022/06/11 00:19:33;;;;;;;3.13;2.20;;;;;;;;;;4939026;28;20230;-72
2022/06/11 00:22:01;;;;;;;3.33;1.90;;;;;;;;;;4987208;28;20230;-72
2022/06/11 00:24:29;;;;;;;3.60;2.10;;;;;;;;;;4986043;28;20777;-72
2022/06/11 00:26:56;;;;;;;2.40;2.03;;;;;;;;;;4957927;28;20611;-72
2022/06/11 00:29:25;;;;;;;2.42;2.00;;;;;;;;;;4972944;28;20240;-71
2022/06/11 00:31:50;;;;;;;6.40;2.33;;;;;;;;;;4988552;28;20233;-72
2022/06/11 00:34:18;;;;;;;3.40;2.10;;;;;;;;;;4986580;28;20237;-73
2022/06/11 00:36:44;;;;;;;3.08;2.20;;;;;;;;;;4988450;28;20329;-72
2022/06/11 00:39:10;;;;;;;4.47;2.30;;;;;;;;;;4986987;28;20312;-72
2022/06/11 00:41:43;;;;;;;3.13;2.33;;;;;;;;;;4975463;28;20299;-72
2022/06/11 00:44:14;;;;;;;2.35;2.08;;;;;;;;;;4969501;28;20230;-72
2022/06/11 00:46:59;;;;;;;4.45;2.33;;;;;;;;;;4971618;28;20220;-72
2022/06/11 00:49:49;;;;;;;3.95;2.30;;;;;;;;;;4986536;28;20225;-72
2022/06/11 00:52:35;;;;;;;3.63;2.40;;;;;;;;;;4981882;28;20221;-70
2022/06/11 00:55:10;;;;;;;5.03;2.33;;;;;;;;;;4985973;28;20649;-70
2022/06/11 00:57:54;;;;;;;4.65;2.70;;;;;;;;;;4987224;28;20232;-70
2022/06/11 01:00:28;;;;;;;3.45;2.60;;;;;;;;;;4966141;28;20300;-71
2022/06/11 01:02:53;;;;;;;4.75;2.58;;;;;;;;;;4953735;28;20593;-72
2022/06/11 01:05:25;;;;;;;5.18;2.70;;;;;;;;;;4986173;28;20225;-70
2022/06/11 01:07:56;;;;;;;4.18;2.22;;;;;;;;;;4970774;28;20221;-71
2022/06/11 01:11:03;;;;;;;3.22;2.55;;;;;;;;;;4969702;28;20678;-71
2022/06/11 01:13:52;;;;;;;3.25;2.15;;;;;;;;;;4986519;28;20237;-71
2022/06/11 01:16:28;;;;;;;4.00;2.60;;;;;;;;;;4976696;28;20221;-71
2022/06/11 01:19:03;;;;;;;4.22;2.53;;;;;;;;;;4995555;28;20261;-72
2022/06/11 01:21:51;;;;;;;3.17;2.50;;;;;;;;;;4970573;28;20236;-70
2022/06/11 01:24:29;;;;;;;3.30;2.53;;;;;;;;;;4979302;28;20225;-71
2022/06/11 01:27:27;;;;;;;4.32;2.70;;;;;;;;;;4975805;28;20256;-71
2022/06/11 01:29:59;;;;;;;2.67;2.40;;;;;;;;;;4940960;28;20225;-71
2022/06/11 01:32:50;;;;;;;3.38;2.67;;;;;;;;;;4947927;28;20235;-71
2022/06/11 01:35:28;;;;;;;4.63;3.05;;;;;;;;;;4991780;28;20229;-72
2022/06/11 01:38:00;;;;;;;4.90;2.80;;;;;;;;;;4974464;28;20228;-71
2022/06/11 01:40:44;;;;;;;3.50;2.95;;;;;;;;;;4960136;28;20329;-71
2022/06/11 01:43:36;;;;;;;2.80;2.60;;;;;;;;;;4975497;28;20264;-71
2022/06/11 01:46:08;;;;;;;4.43;2.78;;;;;;;;;;4980709;28;20296;-71
2022/06/11 01:48:36;;;;;;;3.83;2.90;;;;;;;;;;4989034;28;20227;-72
2022/06/11 01:51:25;;;;;;;4.78;2.72;;;;;;;;;;4980693;28;20259;-70
2022/06/11 01:54:13;;;;;;;4.20;2.80;;;;;;;;;;4993447;28;20303;-72
2022/06/11 01:56:47;;;;;;;4.20;3.20;;;;;;;;;;4993106;28;20282;-73
2022/06/11 01:59:41;;;;;;;4.30;2.75;;;;;;;;;;4984792;28;20243;-71
2022/06/11 02:02:27;;;;;;;3.30;2.70;;;;;;;;;;4978336;28;20225;-72
2022/06/11 02:05:01;;;;;;;2.83;2.45;;;;;;;;;;4976088;28;20240;-72
2022/06/11 02:07:51;;;;;;;3.65;2.80;;;;;;;;;;4959328;28;20633;-72
2022/06/11 02:10:33;;;;;;;2.75;2.50;;;;;;;;;;4973371;28;20581;-72
2022/06/11 02:13:23;;;;;;;3.20;2.90;;;;;;;;;;4975143;28;20233;-72
2022/06/11 02:16:14;;;;;;;3.42;2.78;;;;;;;;;;4963372;28;20703;-71
2022/06/11 02:18:44;;;;;;;3.95;2.83;;;;;;;;;;4990686;28;20217;-72
2022/06/11 02:21:13;;;;;;;3.90;2.70;;;;;;;;;;4972841;28;20225;-71
2022/06/11 02:23:42;;;;;;;5.13;2.95;;;;;;;;;;4976999;28;20288;-71
2022/06/11 02:26:22;;;;;;;3.50;2.90;;;;;;;;;;4975506;28;20233;-72
2022/06/11 02:28:48;;;;;;;4.38;2.88;;;;;;;;;;4972144;28;20626;-71
2022/06/11 02:31:15;;;;;;;4.45;2.97;;;;;;;;;;4974952;28;20225;-70
2022/06/11 02:33:43;;;;;;;4.30;2.72;;;;;;;;;;4974015;28;20226;-71
2022/06/11 02:36:12;;;;;;;3.33;2.97;;;;;;;;;;4956567;28;20218;-71
2022/06/11 02:38:37;;;;;;;3.67;2.92;;;;;;;;;;4990820;28;20225;-71
2022/06/11 02:41:08;;;;;;;3.75;2.78;;;;;;;;;;4987866;28;20229;-71
2022/06/11 02:43:39;;;;;;;5.90;3.05;;;;;;;;;;4957047;28;20220;-70
2022/06/11 02:48:55;;;;;;;3.47;2.90;;;;;;;;;;4989317;28;20240;-72
2022/06/11 02:51:23;;;;;;;3.47;2.88;;;;;;;;;;4971105;28;20232;-71
2022/06/11 02:53:51;;;;;;;3.80;3.15;;;;;;;;;;4964022;28;20230;-71
2022/06/11 02:56:19;;;;;;;4.43;2.83;;;;;;;;;;4957419;28;20213;-69
2022/06/11 02:58:47;;;;;;;5.28;3.28;;;;;;;;;;4989190;28;20861;-70
2022/06/11 03:01:14;;;;;;;3.40;2.88;;;;;;;;;;4990365;28;20243;-71
2022/06/11 03:03:40;;;;;;;4.68;3.03;;;;;;;;;;4970997;28;20249;-72
2022/06/11 03:06:05;;;;;;;4.28;2.92;;;;;;;;;;4989444;28;20221;-71
2022/06/11 03:08:31;;;;;;;4.75;3.15;;;;;;;;;;4971409;28;20275;-71
2022/06/11 03:10:59;;;;;;;4.70;2.72;;;;;;;;;;4990017;28;20227;-72
2022/06/11 03:13:25;;;;;;;5.03;3.15;;;;;;;;;;4969954;28;20233;-71
2022/06/11 03:15:52;;;;;;;3.13;2.80;;;;;;;;;;4979254;28;20638;-71
2022/06/11 03:18:18;;;;;;;2.90;2.50;;;;;;;;;;4957009;28;20225;-72
2022/06/11 03:20:43;;;;;;;3.70;2.90;;;;;;;;;;4990565;28;20222;-72
2022/06/11 03:23:09;;;;;;;4.05;2.70;;;;;;;;;;4989152;28;20229;-71
2022/06/11 03:25:35;;;;;;;4.47;2.90;;;;;;;;;;4974500;28;20240;-70
2022/06/11 03:28:11;;;;;;;4.00;2.70;;;;;;;;;;4958354;28;20237;-71
2022/06/11 03:30:36;;;;;;;6.10;2.83;;;;;;;;;;4973086;28;20744;-71
2022/06/11 03:33:02;;;;;;;3.78;2.90;;;;;;;;;;4959280;28;20242;-71
2022/06/11 03:35:27;;;;;;;2.90;2.70;;;;;;;;;;4982189;28;20316;-71
2022/06/11 03:37:53;;;;;;;3.65;2.90;;;;;;;;;;4988635;28;20825;-70
2022/06/11 03:40:23;;;;;;;4.45;2.83;;;;;;;;;;4990216;28;20218;-71
2022/06/11 03:42:51;;;;;;;4.03;2.72;;;;;;;;;;4989330;28;20221;-70
2022/06/11 03:45:17;;;;;;;7.90;2.90;;;;;;;;;;4988217;28;20236;-70
2022/06/11 03:47:43;;;;;;;3.63;2.45;;;;;;;;;;4967488;28;20229;-70
2022/06/11 03:50:15;;;;;;;3.88;2.90;;;;;;;;;;4940193;28;20232;-72
2022/06/11 03:52:40;;;;;;;3.05;2.70;;;;;;;;;;4955814;28;20311;-71
2022/06/11 03:55:07;;;;;;;4.07;2.65;;;;;;;;;;4972822;28;20226;-71
2022/06/11 03:57:34;;;;;;;6.97;2.80;;;;;;;;;;4970089;28;20236;-70
2022/06/11 04:00:02;;;;;;;4.53;2.70;;;;;;;;;;5001128;28;20276;-70
2022/06/11 04:02:33;;;;;;;4.68;2.80;;;;;;;;;;4972233;28;20948;-70
2022/06/11 04:04:59;;;;;;;3.25;2.42;;;;;;;;;;4990848;28;20224;-70
2022/06/11 04:07:29;;;;;;;4.30;2.78;;;;;;;;;;4971171;28;20338;-71
2022/06/11 04:09:57;;;;;;;3.10;2.58;;;;;;;;;;4976828;28;20218;-70
2022/06/11 04:12:27;;;;;;;5.70;2.80;;;;;;;;;;4988437;28;20246;-70
2022/06/11 04:14:57;;;;;;;3.08;2.40;;;;;;;;;;4976725;28;20324;-70
2022/06/11 04:17:29;;;;;;;5.28;2.60;;;;;;;;;;4987809;28;20221;-71
2022/06/11 04:19:57;;;;;;;2.92;2.42;;;;;;;;;;4959487;28;20259;-70
2022/06/11 04:22:23;;;;;;;3.83;2.33;;;;;;;;;;4983515;28;20626;-72
2022/06/11 04:24:49;;;;;;;5.78;2.50;;;;;;;;;;4988975;28;20230;-73
2022/06/11 04:27:15;;;;;;;5.45;2.53;;;;;;;;;;4972400;28;20264;-71
2022/06/11 04:29:43;;;;;;;3.30;2.45;;;;;;;;;;4971227;28;20241;-70
2022/06/11 04:32:15;;;;;;;4.45;2.30;;;;;;;;;;4969343;28;20233;-71
2022/06/11 04:34:41;;;;;;;5.00;2.55;;;;;;;;;;4969936;28;20248;-71
2022/06/11 04:37:08;;;;;;;3.85;2.20;;;;;;;;;;4986623;28;20253;-71
2022/06/11 04:39:36;;;;;;;6.20;2.53;;;;;;;;;;4987921;28;20284;-71
2022/06/11 04:42:01;;;;;;;5.05;2.70;;;;;;;;;;4987340;28;20218;-71
2022/06/11 04:44:27;;;;;;;3.03;2.60;;;;;;;;;;4979721;28;20727;-71
2022/06/11 04:46:58;;;;;;;4.25;2.63;;;;;;;;;;4989119;28;20221;-72
2022/06/11 04:49:23;;;;;;;2.97;2.13;;;;;;;;;;4937030;28;20313;-72
2022/06/11 04:51:51;;;;;;;4.88;2.83;;;;;;;;;;4945519;28;20575;-71
2022/06/11 04:54:16;;;;;;;3.42;2.35;;;;;;;;;;4970819;28;20221;-71
2022/06/11 04:56:42;;;;;;;5.93;2.85;;;;;;;;;;4988635;28;20232;-72
2022/06/11 04:59:10;;;;;;;4.18;2.63;;;;;;;;;;4989986;28;20217;-71
2022/06/11 05:01:40;;;;;;;2.70;2.25;;;;;;;;;;4989593;28;20305;-71
2022/06/11 05:04:05;;;;;;;3.25;2.25;;;;;;;;;;4954458;28;20225;-72
2022/06/11 05:06:37;;;;;;;3.95;2.60;;;;;;;;;;4970876;28;20222;-72
2022/06/11 05:09:02;;;;;;;3.38;2.22;;;;;;;;;;4963547;28;20225;-71
2022/06/11 05:11:28;;;;;;;3.30;2.40;;;;;;;;;;4994915;28;20280;-71
2022/06/11 05:13:54;;;;;;;4.50;2.25;;;;;;;;;;4986617;28;20241;-72
2022/06/11 05:16:21;;;;;;;4.05;2.53;;;;;;;;;;4987394;28;20225;-71
2022/06/11 05:18:50;;;;;;;3.42;2.60;;;;;;;;;;4986295;28;20217;-72
2022/06/11 05:21:15;;;;;;;5.35;2.90;;;;;;;;;;4979481;28;20313;-71
2022/06/11 05:23:43;;;;;;;3.60;2.80;;;;;;;;;;4969848;28;20363;-72
2022/06/11 05:26:10;;;;;;;3.00;2.45;;;;;;;;;;4958935;28;20221;-71
2022/06/11 05:28:36;;;;;;;5.45;2.90;;;;;;;;;;4970122;28;20230;-71
2022/06/11 05:31:02;;;;;;;4.35;2.75;;;;;;;;;;4990163;28;20283;-70
2022/06/11 05:33:27;;;;;;;7.25;3.38;;;;;;;;;;4953762;28;20253;-70
2022/06/11 05:35:55;;;;;;;4.15;2.80;;;;;;;;;;4970593;28;20226;-72
2022/06/11 05:38:23;;;;;;;4.93;2.90;;;;;;;;;;4937904;28;20221;-72
2022/06/11 05:40:49;;;;;;;6.50;3.22;;;;;;;;;;4969063;28;20224;-71
2022/06/11 05:43:15;;;;;;;7.30;3.30;;;;;;;;;;4954467;28;20715;-71
2022/06/11 05:45:44;;;;;;;7.07;3.40;;;;;;;;;;4989814;28;20270;-72
2022/06/11 05:48:11;;;;;;;3.65;3.33;;;;;;;;;;4986624;28;20217;-71
2022/06/11 05:50:39;;;;;;;6.00;3.45;;;;;;;;;;4929178;28;20252;-72
2022/06/11 05:53:05;;;;;;;6.35;3.45;;;;;;;;;;4952375;28;20237;-73
2022/06/11 05:55:31;;;;;;;7.53;3.63;;;;;;;;;;4969382;28;20229;-72
2022/06/11 05:58:01;;;;;;;6.18;3.70;;;;;;;;;;4941050;28;20320;-72
2022/06/11 06:00:29;;;;;;;5.50;3.28;;;;;;;;;;4970776;28;20227;-73
2022/06/11 06:02:55;;;;;;;6.20;3.72;;;;;;;;;;4973413;28;20222;-71
2022/06/11 06:05:24;;;;;;;7.30;3.67;;;;;;;;;;4965880;28;20241;-72
2022/06/11 06:07:52;;;;;;;7.45;3.50;;;;;;;;;;4971973;28;20225;-71
2022/06/11 06:10:22;;;;;;;5.30;3.70;;;;;;;;;;4957602;28;20217;-73
2022/06/11 06:12:48;;;;;;;6.28;3.50;;;;;;;;;;4972881;28;20752;-71
2022/06/11 06:15:16;;;;;;;4.80;3.35;;;;;;;;;;4958553;28;20340;-71
2022/06/11 06:17:42;;;;;;;5.95;3.90;;;;;;;;;;4958547;28;20267;-70
2022/06/11 06:20:10;;;;;;;5.45;3.70;;;;;;;;;;4972051;28;20225;-71
2022/06/11 06:22:38;;;;;;;7.32;3.75;;;;;;;;;;4974002;28;20221;-70
2022/06/11 06:25:07;;;;;;;7.85;4.15;;;;;;;;;;4956288;28;20308;-72
2022/06/11 06:27:33;;;;;;;5.80;4.22;;;;;;;;;;4961146;28;20287;-71
2022/06/11 06:29:59;;;;;;;7.90;4.03;;;;;;;;;;4972500;28;20265;-70
2022/06/11 06:32:28;;;;;;;8.65;4.75;;;;;;;;;;4956905;28;20233;-71
2022/06/11 06:34:54;;;;;;;8.43;4.55;;;;;;;;;;4936479;28;20230;-73
2022/06/11 06:37:19;;;;;;;7.82;4.40;;;;;;;;;;4969944;28;20225;-72
2022/06/11 06:39:45;;;;;;;9.68;4.40;;;;;;;;;;4957384;28;20206;-72
2022/06/11 06:42:13;;;;;;;5.97;3.70;;;;;;;;;;4972543;28;20256;-71
2022/06/11 06:44:44;;;;;;;6.05;3.70;;;;;;;;;;4968286;28;20233;-72
2022/06/11 06:47:09;;;;;;;5.07;3.28;;;;;;;;;;4986647;28;20228;-71
2022/06/11 06:49:36;;;;;;;4.88;3.45;;;;;;;;;;4956845;28;20245;-71
2022/06/11 06:52:04;;;;;;;5.32;4.15;;;;;;;;;;4986842;28;20280;-71
2022/06/11 06:54:34;;;;;;;8.40;4.03;;;;;;;;;;4970945;28;20229;-71
2022/06/11 06:56:59;;;;;;;10.25;3.75;;;;;;;;;;4965141;28;20218;-71
2022/06/11 06:59:25;;;;;;;7.32;3.75;;;;;;;;;;4958550;28;20713;-72
2022/06/11 07:01:51;;;;;;;5.82;3.53;;;;;;;;;;4963100;28;20221;-71
2022/06/11 07:04:19;;;;;;;7.78;3.22;;;;;;;;;;4971293;28;20249;-72
2022/06/11 07:06:46;;;;;;;5.97;3.45;;;;;;;;;;4969633;28;20249;-70
2022/06/11 07:09:12;;;;;;;5.50;3.15;;;;;;;;;;4991552;28;20714;-71
2022/06/11 07:11:37;;;;;;;7.78;4.10;;;;;;;;;;4971348;28;20224;-71
2022/06/11 07:14:03;;;;;;;5.32;4.00;;;;;;;;;;4971851;28;20245;-71
2022/06/11 07:16:38;;;;;;;5.60;3.85;;;;;;;;;;4956029;28;20233;-71
2022/06/11 07:19:09;;;;;;;8.90;4.72;;;;;;;;;;4949665;28;20731;-71
2022/06/11 07:21:42;;;;;;;7.50;4.22;;;;;;;;;;4966010;28;20221;-72
2022/06/11 07:24:14;;;;;;;5.47;4.25;;;;;;;;;;4959302;28;20225;-72
2022/06/11 07:26:43;;;;;;;7.28;5.63;;;;;;;;;;4966337;28;20225;-72
2022/06/11 07:29:14;;;;;;;6.07;5.55;;;;;;;;;;4969043;28;20379;-72
2022/06/11 07:31:40;;;;;;;8.35;5.93;;;;;;;;;;4972324;28;20440;-72
2022/06/11 07:34:07;;;;;;;8.23;5.97;;;;;;;;;;4970249;28;20585;-73
2022/06/11 07:36:35;;;;;;;6.80;6.10;;;;;;;;;;4970616;28;20214;-75
2022/06/11 07:39:01;;;;;;;5.80;5.20;;;;;;;;;;4954254;28;20249;-71
2022/06/11 07:41:27;;;;;;;6.38;5.78;;;;;;;;;;4970567;28;20225;-71
2022/06/11 07:44:01;;;;;;;7.53;4.95;;;;;;;;;;4946479;28;20618;-76
2022/06/11 07:46:29;;;;;;;8.00;4.70;;;;;;;;;;4970379;28;20274;-71
2022/06/11 07:49:00;;;;;;;5.75;4.53;;;;;;;;;;4968367;28;20234;-71
2022/06/11 07:51:25;;;;;;;4.38;3.97;;;;;;;;;;4954720;28;20225;-71
2022/06/11 07:53:51;;;;;;;3.72;3.03;;;;;;;;;;4987853;28;20225;-71
2022/06/11 07:56:17;;;;;;;2.55;1.83;;;;;;;;;;4968774;28;20218;-71
2022/06/11 07:58:43;;;;;;;3.22;2.05;;;;;;;;;;4969436;28;20604;-72
2022/06/11 08:01:08;;;;;;;2.25;1.70;;;;;;;;;;4954258;28;20239;-72
2022/06/11 08:03:36;;;;;;;2.78;1.70;;;;;;;;;;4989373;28;20231;-71
2022/06/11 08:06:04;;;;;;;3.30;1.70;;;;;;;;;;4972250;28;20223;-72
2022/06/11 08:08:32;;;;;;;3.78;1.77;;;;;;;;;;4980377;28;20218;-71
2022/06/11 08:10:59;;;;;;;1.80;1.30;;;;;;;;;;4967167;28;20359;-71
2022/06/11 08:13:25;;;;;;;1.58;1.25;;;;;;;;;;4965205;28;20229;-72
2022/06/11 08:15:52;;;;;;;1.65;1.10;;;;;;;;;;4980580;28;20225;-71
2022/06/11 08:18:19;;;;;;;3.45;1.10;;;;;;;;;;4997557;28;20213;-72
2022/06/11 08:20:49;;;;;;;3.08;1.05;;;;;;;;;;4994037;28;20222;-71
2022/06/11 08:23:15;;;;;;;2.30;0.95;;;;;;;;;;4970870;28;20318;-71
2022/06/11 08:25:40;;;;;;;1.75;0.85;;;;;;;;;;4956091;28;20230;-72
2022/06/11 08:28:06;;;;;;;1.88;0.90;;;;;;;;;;4934276;28;20245;-72
2022/06/11 08:30:34;;;;;;;3.45;1.20;;;;;;;;;;4968425;28;20221;-71
2022/06/11 08:33:02;;;;;;;2.60;1.20;;;;;;;;;;4936765;28;20253;-72
2022/06/11 08:35:31;;;;;;;3.33;1.27;;;;;;;;;;4955310;28;20296;-70
2022/06/11 08:37:57;;;;;;;5.03;1.30;;;;;;;;;;4973827;28;20222;-73
2022/06/11 08:40:46;;;;;;;2.83;1.27;;;;;;;;;;4968571;28;20894;-71
2022/06/11 08:43:33;;;;;;;2.33;1.25;;;;;;;;;;4953237;28;20225;-71
2022/06/11 08:46:15;;;;;;;4.22;1.20;;;;;;;;;;4973516;28;20648;-71
2022/06/11 08:49:19;;;;;;;3.45;1.50;;;;;;;;;;4940931;28;20609;-71
2022/06/11 08:52:03;;;;;;;6.53;1.45;;;;;;;;;;4932938;28;20288;-71
2022/06/11 08:54:32;;;;;;;7.40;1.73;;;;;;;;;;4931344;28;20241;-72
2022/06/11 08:57:16;;;;;;;3.58;1.48;;;;;;;;;;4954764;28;20264;-71
2022/06/11 08:59:54;;;;;;;4.15;1.23;;;;;;;;;;4986232;28;20226;-72
2022/06/11 09:02:45;;;;;;;4.95;1.60;;;;;;;;;;4986077;28;20560;-70
2022/06/11 09:05:19;;;;;;;5.18;1.50;;;;;;;;;;4986744;28;20278;-72
2022/06/11 09:08:00;;;;;;;4.53;1.52;;;;;;;;;;4971025;28;20607;-70
2022/06/11 09:10:39;;;;;;;2.97;1.40;;;;;;;;;;4954623;28;20328;-72
2022/06/11 09:13:22;;;;;;;1.40;0.98;;;;;;;;;;4948761;28;20237;-71
2022/06/11 09:16:05;;;;;;;4.03;1.20;;;;;;;;;;4988323;28;20227;-73
2022/06/11 09:19:14;;;;;;;3.40;1.25;;;;;;;;;;4982916;28;20284;-73
2022/06/11 09:22:02;;;;;;;2.15;1.23;;;;;;;;;;4969172;28;20249;-72
2022/06/11 09:25:01;;;;;;;2.63;1.30;;;;;;;;;;4967038;28;20265;-70
2022/06/11 09:27:40;;;;;;;3.30;1.27;;;;;;;;;;4967950;28;20887;-70
2022/06/11 09:30:13;;;;;;;2.88;1.33;;;;;;;;;;4987206;28;20295;-71
2022/06/11 09:33:03;;;;;;;4.47;1.42;;;;;;;;;;4955771;28;20217;-70
2022/06/11 09:35:40;;;;;;;3.22;1.30;;;;;;;;;;4986921;28;20233;-70
2022/06/11 09:38:06;;;;;;;6.68;1.45;;;;;;;;;;4986512;28;20228;-70
2022/06/11 09:40:41;;;;;;;2.80;1.20;;;;;;;;;;4991188;28;20331;-72
2022/06/11 09:43:30;;;;;;;3.58;1.23;;;;;;;;;;4973481;28;20232;-72
2022/06/11 09:45:55;;;;;;;1.85;1.10;;;;;;;;;;4967434;28;20359;-72
2022/06/11 09:48:20;;;;;;;2.72;1.30;;;;;;;;;;4993231;28;20304;-71
2022/06/11 09:50:58;;;;;;;2.10;1.20;;;;;;;;;;4990533;28;20217;-71
2022/06/11 09:53:26;;;;;;;4.07;1.27;;;;;;;;;;4988338;28;20237;-71
2022/06/11 09:56:19;;;;;;;2.17;1.10;;;;;;;;;;4983712;28;20677;-71
2022/06/11 09:58:55;;;;;;;1.50;1.10;;;;;;;;;;4987740;28;20312;-72
2022/06/11 10:01:28;;;;;;;1.60;0.93;;;;;;;;;;4964979;28;20695;-73
2022/06/11 10:03:56;;;;;;;2.53;1.08;;;;;;;;;;4970379;28;20797;-70
2022/06/11 10:06:31;;;;;;;1.95;1.10;;;;;;;;;;4970894;28;20210;-72
2022/06/11 10:09:02;;;;;;;2.47;1.30;;;;;;;;;;4979486;28;20279;-71
2022/06/11 10:11:43;;;;;;;3.65;1.23;;;;;;;;;;4969788;28;20340;-73
2022/06/11 10:14:41;;;;;;;3.35;1.30;;;;;;;;;;4984004;28;20299;-73
2022/06/11 10:17:11;;;;;;;3.92;1.10;;;;;;;;;;4958118;28;20274;-72
2022/06/11 10:20:03;;;;;;;3.75;1.13;;;;;;;;;;4989772;28;20232;-71
2022/06/11 10:22:42;;;;;;;2.65;1.40;;;;;;;;;;4985444;28;20316;-72
2022/06/11 10:25:13;;;;;;;5.90;1.40;;;;;;;;;;4953156;28;20233;-71
2022/06/11 10:27:44;;;;;;;2.42;1.33;;;;;;;;;;4982156;28;20221;-72
2022/06/11 10:30:25;;;;;;;2.45;1.00;;;;;;;;;;4971535;28;20807;-72
2022/06/11 10:32:56;;;;;;;1.08;0.90;;;;;;;;;;4972008;28;21007;-72
2022/06/11 10:35:43;;;;;;;2.35;1.20;;;;;;;;;;4989304;28;20221;-70
2022/06/11 10:38:19;;;;;;;3.10;1.10;;;;;;;;;;4971947;28;20226;-71
2022/06/11 10:40:47;;;;;;;3.22;1.20;;;;;;;;;;4989169;28;20221;-70
2022/06/11 10:43:15;;;;;;;3.90;1.02;;;;;;;;;;4953365;28;20214;-70
2022/06/11 10:45:41;;;;;;;2.08;1.10;;;;;;;;;;4987197;28;20622;-70
2022/06/11 10:48:15;;;;;;;4.10;1.23;;;;;;;;;;4986686;28;20260;-71
2022/06/11 10:50:40;;;;;;;2.33;1.00;;;;;;;;;;4978574;28;20248;-70
2022/06/11 10:53:19;;;;;;;2.45;1.20;;;;;;;;;;4972564;28;20218;-72
2022/06/11 10:55:52;;;;;;;2.17;1.00;;;;;;;;;;4967183;28;20226;-73
2022/06/11 10:58:35;;;;;;;3.78;1.02;;;;;;;;;;4985984;28;20225;-72
2022/06/11 11:01:11;;;;;;;2.53;1.08;;;;;;;;;;4964505;28;20595;-73
2022/06/11 11:03:41;;;;;;;2.10;0.80;;;;;;;;;;4984710;28;20653;-71
2022/06/11 11:06:16;;;;;;;4.53;1.30;;;;;;;;;;4969338;28;20245;-73
2022/06/11 11:08:52;;;;;;;3.60;1.52;;;;;;;;;;4971700;28;20214;-70
2022/06/11 11:11:18;;;;;;;2.78;1.17;;;;;;;;;;4983821;28;20717;-73
2022/06/11 11:13:44;;;;;;;2.80;1.00;;;;;;;;;;4970613;28;20244;-72
2022/06/11 11:16:12;;;;;;;3.17;1.13;;;;;;;;;;4968135;28;20786;-70
2022/06/11 11:18:50;;;;;;;2.65;1.10;;;;;;;;;;4989271;28;20225;-71
2022/06/11 11:21:37;;;;;;;2.20;1.02;;;;;;;;;;4986424;28;20288;-70
2022/06/11 11:24:15;;;;;;;3.17;1.20;;;;;;;;;;4985909;28;20225;-72
2022/06/11 11:26:43;;;;;;;4.20;1.30;;;;;;;;;;4968133;28;20260;-72
2022/06/11 11:29:26;;;;;;;4.95;1.30;;;;;;;;;;4972919;28;20225;-72
2022/06/11 11:31:57;;;;;;;2.38;1.48;;;;;;;;;;4986836;28;20228;-70
2022/06/11 11:34:26;;;;;;;3.45;1.50;;;;;;;;;;4965009;28;20337;-72
2022/06/11 11:37:31;;;;;;;6.85;1.80;;;;;;;;;;4987996;28;20711;-71
2022/06/11 11:40:04;;;;;;;3.88;1.40;;;;;;;;;;4984735;28;20301;-72
2022/06/11 11:42:37;;;;;;;3.28;1.40;;;;;;;;;;4938036;28;20221;-70
2022/06/11 11:45:26;;;;;;;4.35;1.45;;;;;;;;;;4940560;28;20221;-72
2022/06/11 11:48:03;;;;;;;2.53;1.30;;;;;;;;;;4959361;28;20242;-73
2022/06/11 11:50:36;;;;;;;4.22;1.20;;;;;;;;;;4926511;28;20221;-73
2022/06/11 11:53:04;;;;;;;3.47;1.40;;;;;;;;;;4957963;28;20227;-72
2022/06/11 11:55:34;;;;;;;3.08;1.35;;;;;;;;;;4952129;28;20225;-72
2022/06/11 11:58:28;;;;;;;5.78;1.70;;;;;;;;;;4954851;28;20676;-74
2022/06/11 12:00:59;;;;;;;3.65;1.33;;;;;;;;;;4969753;28;20233;-72
2022/06/11 12:03:41;;;;;;;4.10;1.35;;;;;;;;;;4966909;28;20222;-70
2022/06/11 12:06:11;;;;;;;3.88;1.42;;;;;;;;;;4987029;28;20374;-71
2022/06/11 12:08:38;;;;;;;3.28;1.55;;;;;;;;;;4968358;28;20222;-72
2022/06/11 12:11:06;;;;;;;3.83;1.50;;;;;;;;;;4985108;28;20222;-72
2022/06/11 12:13:48;;;;;;;3.38;1.30;;;;;;;;;;4971062;28;20295;-72
2022/06/11 12:16:30;;;;;;;2.97;1.50;;;;;;;;;;4970613;28;20221;-70
2022/06/11 12:19:11;;;;;;;3.70;1.50;;;;;;;;;;4969406;28;20649;-70
2022/06/11 12:21:40;;;;;;;5.25;1.63;;;;;;;;;;4968055;28;20240;-73
2022/06/11 12:24:10;;;;;;;3.63;1.52;;;;;;;;;;4970590;28;20688;-72
2022/06/11 12:26:47;;;;;;;3.55;1.65;;;;;;;;;;4971121;28;20221;-73
2022/06/11 12:29:41;;;;;;;3.63;1.50;;;;;;;;;;4970736;28;20213;-71
2022/06/11 12:32:13;;;;;;;4.00;1.50;;;;;;;;;;4970080;28;20222;-71
2022/06/11 12:34:41;;;;;;;3.55;1.40;;;;;;;;;;4985886;28;20386;-70
2022/06/11 12:37:08;;;;;;;5.00;1.70;;;;;;;;;;4952725;28;20281;-68
2022/06/11 12:39:51;;;;;;;3.25;1.60;;;;;;;;;;4973472;28;20237;-71
2022/06/11 12:42:26;;;;;;;5.93;1.80;;;;;;;;;;5000283;28;20221;-73
2022/06/11 12:45:01;;;;;;;4.43;1.77;;;;;;;;;;4984937;28;20240;-70
2022/06/11 12:47:54;;;;;;;4.63;1.83;;;;;;;;;;4981841;28;20232;-72
2022/06/11 12:50:45;;;;;;;4.72;1.60;;;;;;;;;;4947990;28;20222;-71
2022/06/11 12:53:13;;;;;;;3.80;1.50;;;;;;;;;;4978782;28;20250;-71
2022/06/11 12:55:50;;;;;;;4.03;1.38;;;;;;;;;;4968386;28;20312;-72
2022/06/11 12:58:35;;;;;;;3.85;1.33;;;;;;;;;;4984850;28;20225;-71
2022/06/11 13:01:08;;;;;;;4.05;1.73;;;;;;;;;;4970986;28;20358;-71
2022/06/11 13:03:40;;;;;;;3.65;1.77;;;;;;;;;;4986612;28;20306;-73
2022/06/11 13:06:20;;;;;;;3.80;1.50;;;;;;;;;;4985847;28;20245;-72
2022/06/11 13:09:15;;;;;;;4.95;1.52;;;;;;;;;;4946529;28;20229;-71
2022/06/11 13:12:02;;;;;;;4.07;1.60;;;;;;;;;;4965737;28;20600;-71
2022/06/11 13:14:52;;;;;;;6.30;1.85;;;;;;;;;;4989184;28;20237;-71
2022/06/11 13:17:49;;;;;;;6.22;1.73;;;;;;;;;;4983091;28;20277;-72
2022/06/11 13:20:21;;;;;;;2.53;1.30;;;;;;;;;;4961818;28;20230;-73
2022/06/11 13:23:01;;;;;;;4.80;1.70;;;;;;;;;;4968190;28;20726;-74
2022/06/11 13:25:41;;;;;;;4.15;1.63;;;;;;;;;;4967951;28;20283;-73
2022/06/11 13:28:22;;;;;;;4.07;1.50;;;;;;;;;;4986244;28;20244;-72
2022/06/11 13:31:02;;;;;;;3.83;1.70;;;;;;;;;;4964784;28;20236;-71
2022/06/11 13:33:34;;;;;;;3.00;1.60;;;;;;;;;;4949066;28;20726;-73
2022/06/11 13:36:36;;;;;;;5.40;1.58;;;;;;;;;;4968656;28;20229;-72
2022/06/11 13:39:24;;;;;;;3.22;1.55;;;;;;;;;;4958920;28;20214;-70
2022/06/11 13:42:07;;;;;;;5.95;1.88;;;;;;;;;;4963147;28;21158;-73
2022/06/11 13:44:52;;;;;;;3.80;1.70;;;;;;;;;;4984336;28;20240;-70
2022/06/11 13:47:28;;;;;;;4.45;1.60;;;;;;;;;;4985417;28;20773;-72
2022/06/11 13:50:16;;;;;;;4.57;1.80;;;;;;;;;;4981041;28;20233;-73
2022/06/11 13:55:43;;;;;;;3.72;1.60;;;;;;;;;;4953076;28;20232;-70
2022/06/11 13:58:14;;;;;;;4.47;1.50;;;;;;;;;;4950202;28;21053;-69
2022/06/11 14:01:08;;;;;;;4.22;1.60;;;;;;;;;;4986521;28;20328;-69
2022/06/11 14:03:44;;;;;;;3.88;1.60;;;;;;;;;;4946233;28;20985;-71
2022/06/11 14:06:10;;;;;;;4.15;1.90;;;;;;;;;;4961196;28;20229;-70
2022/06/11 14:08:42;;;;;;;3.13;1.83;;;;;;;;;;4931706;28;20221;-71
2022/06/11 14:11:43;;;;;;;6.18;1.65;;;;;;;;;;4968304;28;20313;-71
2022/06/11 14:14:34;;;;;;;2.88;1.25;;;;;;;;;;4948126;28;20234;-71
2022/06/11 14:17:00;;;;;;;3.80;1.55;;;;;;;;;;4969946;28;20226;-70
2022/06/11 14:19:25;;;;;;;4.85;1.52;;;;;;;;;;4952922;28;20229;-74
2022/06/11 14:21:56;;;;;;;4.90;2.03;;;;;;;;;;4986726;28;20225;-71
2022/06/11 14:24:43;;;;;;;4.78;1.70;;;;;;;;;;4950569;28;20221;-73
2022/06/11 14:27:31;;;;;;;4.13;1.65;;;;;;;;;;4956727;28;20214;-72
2022/06/11 14:30:09;;;;;;;5.97;1.73;;;;;;;;;;4978440;28;20316;-70
2022/06/11 14:32:38;;;;;;;3.60;1.60;;;;;;;;;;4990261;28;20945;-70
2022/06/11 14:35:23;;;;;;;3.08;1.65;;;;;;;;;;4960683;28;20605;-71
2022/06/11 14:37:49;;;;;;;3.60;1.60;;;;;;;;;;4939986;28;20308;-70
2022/06/11 14:40:41;;;;;;;2.58;1.50;;;;;;;;;;4955040;28;20221;-71
2022/06/11 14:43:09;;;;;;;3.97;1.80;;;;;;;;;;4967414;28;20226;-72
2022/06/11 14:45:44;;;;;;;4.40;2.08;;;;;;;;;;4937310;28;20284;-71
2022/06/11 14:48:34;;;;;;;4.40;1.70;;;;;;;;;;4970531;28;20220;-72
2022/06/11 14:51:04;;;;;;;6.43;1.70;;;;;;;;;;4972619;28;20277;-70
2022/06/11 14:53:37;;;;;;;3.78;1.70;;;;;;;;;;4970483;28;20240;-70
2022/06/11 14:56:24;;;;;;;5.30;1.65;;;;;;;;;;4988419;28;20321;-71
2022/06/11 14:59:04;;;;;;;2.92;1.48;;;;;;;;;;4985428;28;20217;-72
2022/06/11 15:02:07;;;;;;;2.80;1.50;;;;;;;;;;4980368;28;20224;-73
2022/06/11 15:04:39;;;;;;;4.07;1.50;;;;;;;;;;4985975;28;20225;-70
2022/06/11 15:07:11;;;;;;;5.13;2.05;;;;;;;;;;4985892;28;20247;-72
2022/06/11 15:10:08;;;;;;;3.88;1.65;;;;;;;;;;4985609;28;20245;-71
2022/06/11 15:12:49;;;;;;;5.35;2.03;;;;;;;;;;4984544;28;20217;-70
2022/06/11 15:15:44;;;;;;;4.25;1.75;;;;;;;;;;4987691;28;20225;-71
2022/06/11 15:18:26;;;;;;;4.50;2.05;;;;;;;;;;4985151;28;20236;-71
2022/06/11 15:21:04;;;;;;;3.60;1.77;;;;;;;;;;4984660;28;20288;-71
2022/06/11 15:23:39;;;;;;;3.67;1.48;;;;;;;;;;4966693;28;20220;-71
2022/06/11 15:26:18;;;;;;;4.40;1.73;;;;;;;;;;4970211;28;20253;-71